sensor_id;sensor_type;location;lat;lon;timestamp;pressure;altitude;pressure_sealevel;temperature;humidity
14966;BME280;7577;45.226;5.798;2023-08-17T00:00:21;99060.81;;;30.79;38.17
14966;BME280;7577;45.226;5.798;2023-08-17T00:02:51;99060.22;;;30.79;38.18
14966;BME280;7577;45.226;5.798;2023-08-17T00:05:22;99053.97;;;30.76;38.15
14966;BME280;7577;45.226;5.798;2023-08-17T00:07:53;99056.16;;;30.73;38.19
14966;BME280;7577;45.226;5.798;2023-08-17T00:10:23;99052.75;;;30.70;38.28
14966;BME280;7577;45.226;5.798;2023-08-17T00:12:53;99052.94;;;30.68;38.34
14966;BME280;7577;45.226;5.798;2023-08-17T00:15:24;99056.30;;;30.64;38.45
14966;BME280;7577;45.226;5.798;2023-08-17T00:20:32;99056.88;;;30.60;38.56
14966;BME280;7577;45.226;5.798;2023-08-17T00:23:02;99054.46;;;30.58;38.55
14966;BME280;7577;45.226;5.798;2023-08-17T00:25:32;99059.06;;;30.57;38.63
14966;BME280;7577;45.226;5.798;2023-08-17T00:28:04;99053.63;;;30.54;38.69
14966;BME280;7577;45.226;5.798;2023-08-17T00:30:35;99055.62;;;30.50;38.77
14966;BME280;7577;45.226;5.798;2023-08-17T00:33:07;99058.19;;;30.46;38.86
14966;BME280;7577;45.226;5.798;2023-08-17T00:35:37;99058.17;;;30.42;38.90
14966;BME280;7577;45.226;5.798;2023-08-17T00:38:07;99060.61;;;30.44;38.93
14966;BME280;7577;45.226;5.798;2023-08-17T00:40:37;99046.34;;;30.39;39.02
14966;BME280;7577;45.226;5.798;2023-08-17T00:43:08;99054.15;;;30.40;39.06
14966;BME280;7577;45.226;5.798;2023-08-17T00:48:16;99054.54;;;30.38;39.16
14966;BME280;7577;45.226;5.798;2023-08-17T00:50:48;99059.75;;;30.33;39.22
14966;BME280;7577;45.226;5.798;2023-08-17T00:53:19;99056.95;;;30.36;39.21
14966;BME280;7577;45.226;5.798;2023-08-17T00:55:51;99049.53;;;30.38;39.25
14966;BME280;7577;45.226;5.798;2023-08-17T01:01:01;99044.12;;;30.42;39.32
14966;BME280;7577;45.226;5.798;2023-08-17T01:03:33;99054.98;;;30.44;39.22
14966;BME280;7577;45.226;5.798;2023-08-17T01:06:04;99058.81;;;30.45;39.28
14966;BME280;7577;45.226;5.798;2023-08-17T01:08:34;99067.00;;;30.41;39.42
14966;BME280;7577;45.226;5.798;2023-08-17T01:11:09;99068.00;;;30.35;39.52
14966;BME280;7577;45.226;5.798;2023-08-17T01:16:29;99066.52;;;30.25;39.78
14966;BME280;7577;45.226;5.798;2023-08-17T01:19:01;99067.70;;;30.24;39.74
14966;BME280;7577;45.226;5.798;2023-08-17T01:21:41;99064.28;;;30.21;39.80
14966;BME280;7577;45.226;5.798;2023-08-17T01:24:11;99073.88;;;30.16;39.85
14966;BME280;7577;45.226;5.798;2023-08-17T01:26:41;99069.07;;;30.17;39.76
14966;BME280;7577;45.226;5.798;2023-08-17T01:29:12;99068.64;;;30.15;39.72
14966;BME280;7577;45.226;5.798;2023-08-17T01:34:24;99068.05;;;30.15;39.43
14966;BME280;7577;45.226;5.798;2023-08-17T01:36:57;99069.41;;;30.12;39.25
14966;BME280;7577;45.226;5.798;2023-08-17T01:39:32;99076.00;;;30.10;39.12
14966;BME280;7577;45.226;5.798;2023-08-17T01:42:03;99079.81;;;30.08;39.10
14966;BME280;7577;45.226;5.798;2023-08-17T01:44:34;99086.19;;;29.78;38.66
14966;BME280;7577;45.226;5.798;2023-08-17T01:47:05;99088.21;;;29.57;39.10
14966;BME280;7577;45.226;5.798;2023-08-17T01:49:35;99083.05;;;29.46;39.17
14966;BME280;7577;45.226;5.798;2023-08-17T01:52:06;99086.00;;;29.40;39.18
14966;BME280;7577;45.226;5.798;2023-08-17T01:54:36;99085.53;;;29.35;39.47
14966;BME280;7577;45.226;5.798;2023-08-17T01:57:06;99087.64;;;29.25;39.58
14966;BME280;7577;45.226;5.798;2023-08-17T01:59:36;99074.89;;;29.14;39.99
14966;BME280;7577;45.226;5.798;2023-08-17T02:02:06;99074.98;;;29.21;40.02
14966;BME280;7577;45.226;5.798;2023-08-17T02:04:38;99088.43;;;29.25;39.87
14966;BME280;7577;45.226;5.798;2023-08-17T02:07:08;99087.19;;;29.03;40.26
14966;BME280;7577;45.226;5.798;2023-08-17T02:09:38;99085.97;;;28.87;40.60
14966;BME280;7577;45.226;5.798;2023-08-17T02:12:08;99081.00;;;28.61;41.01
14966;BME280;7577;45.226;5.798;2023-08-17T02:17:16;99073.83;;;28.37;41.72
14966;BME280;7577;45.226;5.798;2023-08-17T02:19:47;99078.98;;;28.32;41.79
14966;BME280;7577;45.226;5.798;2023-08-17T02:22:17;99074.98;;;28.20;42.47
14966;BME280;7577;45.226;5.798;2023-08-17T02:24:48;99074.98;;;28.20;42.47
14966;BME280;7577;45.226;5.798;2023-08-17T02:27:18;99072.02;;;28.22;42.47
14966;BME280;7577;45.226;5.798;2023-08-17T02:29:48;99076.17;;;28.32;42.21
14966;BME280;7577;45.226;5.798;2023-08-17T02:32:18;99078.12;;;28.28;42.40
14966;BME280;7577;45.226;5.798;2023-08-17T02:34:48;99063.17;;;28.20;42.30
14966;BME280;7577;45.226;5.798;2023-08-17T02:37:18;99063.17;;;28.20;42.30
14966;BME280;7577;45.226;5.798;2023-08-17T02:39:49;99058.59;;;28.22;42.07
14966;BME280;7577;45.226;5.798;2023-08-17T02:42:19;99045.57;;;28.20;41.97
14966;BME280;7577;45.226;5.798;2023-08-17T02:44:49;99064.81;;;28.21;41.95
14966;BME280;7577;45.226;5.798;2023-08-17T02:50:00;99058.72;;;28.16;42.16
14966;BME280;7577;45.226;5.798;2023-08-17T02:52:30;99061.64;;;27.97;42.69
14966;BME280;7577;45.226;5.798;2023-08-17T02:55:00;99055.17;;;28.06;42.99
14966;BME280;7577;45.226;5.798;2023-08-17T02:57:31;99055.17;;;28.06;42.99
14966;BME280;7577;45.226;5.798;2023-08-17T03:00:01;99053.33;;;28.17;42.61
14966;BME280;7577;45.226;5.798;2023-08-17T03:02:32;99056.94;;;28.30;42.37
14966;BME280;7577;45.226;5.798;2023-08-17T03:05:02;99067.44;;;28.37;42.20
14966;BME280;7577;45.226;5.798;2023-08-17T03:07:32;99063.79;;;28.46;42.20
14966;BME280;7577;45.226;5.798;2023-08-17T03:10:03;99058.43;;;28.50;42.22
14966;BME280;7577;45.226;5.798;2023-08-17T03:12:33;99062.87;;;28.51;42.24
14966;BME280;7577;45.226;5.798;2023-08-17T03:15:06;99062.64;;;28.50;42.43
14966;BME280;7577;45.226;5.798;2023-08-17T03:17:36;99055.91;;;28.55;42.38
14966;BME280;7577;45.226;5.798;2023-08-17T03:20:09;99048.08;;;28.54;42.32
14966;BME280;7577;45.226;5.798;2023-08-17T03:25:17;99057.91;;;28.41;42.74
14966;BME280;7577;45.226;5.798;2023-08-17T03:27:47;99065.01;;;28.35;42.87
14966;BME280;7577;45.226;5.798;2023-08-17T03:30:18;99055.16;;;28.32;42.79
14966;BME280;7577;45.226;5.798;2023-08-17T03:32:48;99051.70;;;28.29;42.85
14966;BME280;7577;45.226;5.798;2023-08-17T03:35:18;99053.06;;;28.25;42.93
14966;BME280;7577;45.226;5.798;2023-08-17T03:40:26;99063.45;;;28.25;42.97
14966;BME280;7577;45.226;5.798;2023-08-17T03:45:34;99062.38;;;28.20;43.10
14966;BME280;7577;45.226;5.798;2023-08-17T03:50:43;99063.58;;;28.19;42.96
14966;BME280;7577;45.226;5.798;2023-08-17T03:55:52;99062.87;;;28.12;43.03
14966;BME280;7577;45.226;5.798;2023-08-17T03:58:22;99075.15;;;28.04;43.22
14966;BME280;7577;45.226;5.798;2023-08-17T04:00:54;99082.86;;;28.11;42.98
14966;BME280;7577;45.226;5.798;2023-08-17T04:03:24;99082.86;;;28.11;42.98
14966;BME280;7577;45.226;5.798;2023-08-17T04:05:54;99077.13;;;28.17;43.13
14966;BME280;7577;45.226;5.798;2023-08-17T04:08:24;99077.13;;;28.17;43.13
14966;BME280;7577;45.226;5.798;2023-08-17T04:10:54;99084.14;;;28.17;42.99
14966;BME280;7577;45.226;5.798;2023-08-17T04:13:24;99090.28;;;28.13;43.14
14966;BME280;7577;45.226;5.798;2023-08-17T04:15:56;99090.28;;;28.13;43.14
14966;BME280;7577;45.226;5.798;2023-08-17T04:18:26;99084.18;;;28.07;43.13
14966;BME280;7577;45.226;5.798;2023-08-17T04:20:57;99083.18;;;28.06;43.15
14966;BME280;7577;45.226;5.798;2023-08-17T04:23:28;99082.65;;;28.10;43.11
14966;BME280;7577;45.226;5.798;2023-08-17T04:25:58;99080.47;;;28.13;43.04
14966;BME280;7577;45.226;5.798;2023-08-17T04:28:29;99091.09;;;28.13;43.44
14966;BME280;7577;45.226;5.798;2023-08-17T04:30:59;99091.09;;;28.13;43.44
14966;BME280;7577;45.226;5.798;2023-08-17T04:33:29;99090.97;;;28.06;43.72
14966;BME280;7577;45.226;5.798;2023-08-17T04:35:59;99090.88;;;27.99;43.83
14966;BME280;7577;45.226;5.798;2023-08-17T04:38:30;99094.71;;;28.01;43.87
14966;BME280;7577;45.226;5.798;2023-08-17T04:41:00;99104.27;;;27.99;44.01
14966;BME280;7577;45.226;5.798;2023-08-17T04:43:30;99098.51;;;28.02;44.00
14966;BME280;7577;45.226;5.798;2023-08-17T04:46:00;99098.51;;;28.02;44.00
14966;BME280;7577;45.226;5.798;2023-08-17T04:48:30;99115.60;;;28.07;44.10
14966;BME280;7577;45.226;5.798;2023-08-17T04:51:00;99118.82;;;28.08;44.32
14966;BME280;7577;45.226;5.798;2023-08-17T04:53:31;99118.82;;;28.08;44.32
14966;BME280;7577;45.226;5.798;2023-08-17T04:56:02;99132.09;;;28.12;44.28
14966;BME280;7577;45.226;5.798;2023-08-17T04:58:33;99132.50;;;28.13;44.47
14966;BME280;7577;45.226;5.798;2023-08-17T05:01:03;99147.49;;;28.12;44.32
14966;BME280;7577;45.226;5.798;2023-08-17T05:03:33;99150.41;;;27.83;44.88
14966;BME280;7577;45.226;5.798;2023-08-17T05:06:03;99150.41;;;27.83;44.88
14966;BME280;7577;45.226;5.798;2023-08-17T05:08:33;99168.27;;;27.78;45.24
14966;BME280;7577;45.226;5.798;2023-08-17T05:11:04;99175.67;;;27.77;45.46
14966;BME280;7577;45.226;5.798;2023-08-17T05:13:34;99179.11;;;27.80;45.64
14966;BME280;7577;45.226;5.798;2023-08-17T05:18:42;99201.34;;;28.02;45.40
14966;BME280;7577;45.226;5.798;2023-08-17T05:21:14;99208.09;;;28.10;45.11
14966;BME280;7577;45.226;5.798;2023-08-17T05:23:44;99214.70;;;28.21;44.72
14966;BME280;7577;45.226;5.798;2023-08-17T05:26:14;99192.56;;;28.39;44.38
14966;BME280;7577;45.226;5.798;2023-08-17T05:28:44;99192.56;;;28.39;44.38
14966;BME280;7577;45.226;5.798;2023-08-17T05:31:14;99191.89;;;28.45;45.08
14966;BME280;7577;45.226;5.798;2023-08-17T05:33:44;99190.00;;;28.53;45.31
14966;BME280;7577;45.226;5.798;2023-08-17T05:36:15;99184.73;;;28.61;45.18
14966;BME280;7577;45.226;5.798;2023-08-17T05:41:24;99172.38;;;28.78;45.76
14966;BME280;7577;45.226;5.798;2023-08-17T05:43:55;99186.66;;;28.83;45.83
14966;BME280;7577;45.226;5.798;2023-08-17T05:49:05;99196.55;;;28.99;45.50
14966;BME280;7577;45.226;5.798;2023-08-17T05:51:35;99206.03;;;29.04;45.23
14966;BME280;7577;45.226;5.798;2023-08-17T05:54:06;99195.51;;;29.11;45.06
14966;BME280;7577;45.226;5.798;2023-08-17T05:56:36;99192.19;;;29.18;44.76
14966;BME280;7577;45.226;5.798;2023-08-17T05:59:06;99198.86;;;29.23;44.71
14966;BME280;7577;45.226;5.798;2023-08-17T06:01:36;99207.31;;;29.27;44.65
14966;BME280;7577;45.226;5.798;2023-08-17T06:04:07;99210.61;;;29.32;44.65
14966;BME280;7577;45.226;5.798;2023-08-17T06:09:15;99218.17;;;29.45;44.52
14966;BME280;7577;45.226;5.798;2023-08-17T06:11:45;99214.19;;;29.46;44.51
14966;BME280;7577;45.226;5.798;2023-08-17T06:14:15;99198.98;;;29.50;44.37
14966;BME280;7577;45.226;5.798;2023-08-17T06:16:45;99200.66;;;29.55;44.19
14966;BME280;7577;45.226;5.798;2023-08-17T06:21:53;99203.01;;;29.66;44.02
14966;BME280;7577;45.226;5.798;2023-08-17T06:24:23;99192.16;;;29.64;44.11
14966;BME280;7577;45.226;5.798;2023-08-17T06:26:53;99206.20;;;29.64;44.15
14966;BME280;7577;45.226;5.798;2023-08-17T06:29:23;99213.66;;;29.66;44.20
14966;BME280;7577;45.226;5.798;2023-08-17T06:31:53;99207.66;;;29.68;44.32
14966;BME280;7577;45.226;5.798;2023-08-17T06:34:24;99210.50;;;29.71;44.20
14966;BME280;7577;45.226;5.798;2023-08-17T06:37:03;99204.50;;;29.73;44.09
14966;BME280;7577;45.226;5.798;2023-08-17T06:42:11;99206.38;;;29.78;43.97
14966;BME280;7577;45.226;5.798;2023-08-17T06:44:41;99204.15;;;29.78;43.88
14966;BME280;7577;45.226;5.798;2023-08-17T06:47:12;99196.95;;;29.80;43.79
14966;BME280;7577;45.226;5.798;2023-08-17T06:49:43;99199.17;;;29.81;43.75
14966;BME280;7577;45.226;5.798;2023-08-17T06:52:12;99202.98;;;29.82;43.65
14966;BME280;7577;45.226;5.798;2023-08-17T06:54:43;99205.20;;;29.83;43.57
14966;BME280;7577;45.226;5.798;2023-08-17T06:57:13;99207.05;;;29.85;43.49
14966;BME280;7577;45.226;5.798;2023-08-17T06:59:43;99201.02;;;29.86;43.42
14966;BME280;7577;45.226;5.798;2023-08-17T07:02:14;99208.27;;;29.87;43.33
14966;BME280;7577;45.226;5.798;2023-08-17T07:04:44;99207.28;;;29.89;43.23
14966;BME280;7577;45.226;5.798;2023-08-17T07:07:15;99202.24;;;29.89;43.15
14966;BME280;7577;45.226;5.798;2023-08-17T07:09:46;99198.03;;;29.89;43.06
14966;BME280;7577;45.226;5.798;2023-08-17T07:12:17;99194.25;;;29.91;42.97
14966;BME280;7577;45.226;5.798;2023-08-17T07:14:48;99192.47;;;29.92;42.86
14966;BME280;7577;45.226;5.798;2023-08-17T07:17:18;99198.67;;;29.92;42.77
14966;BME280;7577;45.226;5.798;2023-08-17T07:19:48;99195.28;;;29.92;42.76
14966;BME280;7577;45.226;5.798;2023-08-17T07:22:18;99172.42;;;29.94;42.63
14966;BME280;7577;45.226;5.798;2023-08-17T07:24:48;99173.59;;;29.93;42.57
14966;BME280;7577;45.226;5.798;2023-08-17T07:29:56;99174.23;;;29.96;42.45
14966;BME280;7577;45.226;5.798;2023-08-17T07:32:26;99176.63;;;29.94;42.40
14966;BME280;7577;45.226;5.798;2023-08-17T07:34:57;99170.40;;;29.94;42.33
14966;BME280;7577;45.226;5.798;2023-08-17T07:37:27;99165.40;;;29.94;42.29
14966;BME280;7577;45.226;5.798;2023-08-17T07:39:59;99164.78;;;29.94;42.15
14966;BME280;7577;45.226;5.798;2023-08-17T07:42:29;99172.83;;;29.96;42.15
14966;BME280;7577;45.226;5.798;2023-08-17T07:45:01;99164.22;;;29.98;42.17
14966;BME280;7577;45.226;5.798;2023-08-17T07:47:35;99159.23;;;30.01;42.11
14966;BME280;7577;45.226;5.798;2023-08-17T07:50:07;99158.42;;;30.01;42.07
14966;BME280;7577;45.226;5.798;2023-08-17T07:52:37;99159.03;;;30.00;42.02
14966;BME280;7577;45.226;5.798;2023-08-17T07:55:08;99159.23;;;30.01;41.98
14966;BME280;7577;45.226;5.798;2023-08-17T07:57:38;99153.00;;;30.02;41.94
14966;BME280;7577;45.226;5.798;2023-08-17T08:00:10;99152.42;;;30.02;41.90
14966;BME280;7577;45.226;5.798;2023-08-17T08:02:40;99155.43;;;30.03;41.90
14966;BME280;7577;45.226;5.798;2023-08-17T08:05:10;99151.45;;;30.04;41.70
14966;BME280;7577;45.226;5.798;2023-08-17T08:07:42;99146.23;;;30.06;41.78
14966;BME280;7577;45.226;5.798;2023-08-17T08:10:12;99146.62;;;30.05;41.75
14966;BME280;7577;45.226;5.798;2023-08-17T08:12:42;99155.48;;;30.07;41.73
14966;BME280;7577;45.226;5.798;2023-08-17T08:15:12;99149.86;;;30.07;41.69
14966;BME280;7577;45.226;5.798;2023-08-17T08:17:42;99155.06;;;30.08;41.69
14966;BME280;7577;45.226;5.798;2023-08-17T08:22:51;99141.50;;;30.14;41.63
14966;BME280;7577;45.226;5.798;2023-08-17T08:25:21;99139.43;;;30.11;41.58
14966;BME280;7577;45.226;5.798;2023-08-17T08:27:51;99147.48;;;30.12;41.56
14966;BME280;7577;45.226;5.798;2023-08-17T08:30:21;99150.08;;;30.11;41.53
14966;BME280;7577;45.226;5.798;2023-08-17T08:32:52;99139.89;;;30.13;41.52
14966;BME280;7577;45.226;5.798;2023-08-17T08:35:24;99137.09;;;30.13;41.46
14966;BME280;7577;45.226;5.798;2023-08-17T08:37:54;99142.13;;;30.13;41.44
14966;BME280;7577;45.226;5.798;2023-08-17T08:40:27;99133.69;;;30.13;41.40
14966;BME280;7577;45.226;5.798;2023-08-17T08:42:58;99133.27;;;30.15;41.38
14966;BME280;7577;45.226;5.798;2023-08-17T08:45:30;99130.46;;;30.15;41.37
14966;BME280;7577;45.226;5.798;2023-08-17T08:48:01;99124.26;;;30.15;41.33
14966;BME280;7577;45.226;5.798;2023-08-17T08:50:33;99138.51;;;30.16;41.32
14966;BME280;7577;45.226;5.798;2023-08-17T08:53:09;99128.29;;;30.18;41.27
14966;BME280;7577;45.226;5.798;2023-08-17T08:55:38;99121.85;;;30.17;41.28
14966;BME280;7577;45.226;5.798;2023-08-17T08:58:10;99123.25;;;30.17;41.25
14966;BME280;7577;45.226;5.798;2023-08-17T09:00:41;99119.27;;;30.18;41.24
14966;BME280;7577;45.226;5.798;2023-08-17T09:03:12;99116.23;;;30.17;41.23
14966;BME280;7577;45.226;5.798;2023-08-17T09:05:45;99118.45;;;30.18;41.22
14966;BME280;7577;45.226;5.798;2023-08-17T09:08:20;99120.88;;;30.19;41.23
14966;BME280;7577;45.226;5.798;2023-08-17T09:10:49;99113.85;;;30.19;41.23
14966;BME280;7577;45.226;5.798;2023-08-17T09:13:19;99114.67;;;30.20;41.17
14966;BME280;7577;45.226;5.798;2023-08-17T09:18:27;99112.08;;;30.24;41.18
14966;BME280;7577;45.226;5.798;2023-08-17T09:20:58;99117.06;;;30.21;41.16
14966;BME280;7577;45.226;5.798;2023-08-17T09:23:28;99107.05;;;30.24;41.18
14966;BME280;7577;45.226;5.798;2023-08-17T09:25:58;99110.29;;;30.26;41.15
14966;BME280;7577;45.226;5.798;2023-08-17T09:28:30;99101.03;;;30.25;41.18
14966;BME280;7577;45.226;5.798;2023-08-17T09:31:01;99103.27;;;30.26;41.19
14966;BME280;7577;45.226;5.798;2023-08-17T09:33:33;99095.03;;;30.27;41.19
14966;BME280;7577;45.226;5.798;2023-08-17T09:36:05;99097.25;;;30.27;41.21
14966;BME280;7577;45.226;5.798;2023-08-17T09:38:36;99097.84;;;30.27;41.29
14966;BME280;7577;45.226;5.798;2023-08-17T09:41:07;99095.23;;;30.28;41.25
14966;BME280;7577;45.226;5.798;2023-08-17T09:43:37;99091.83;;;30.28;41.28
14966;BME280;7577;45.226;5.798;2023-08-17T09:46:07;99079.38;;;30.29;41.27
14966;BME280;7577;45.226;5.798;2023-08-17T09:48:38;99080.98;;;30.30;41.26
14966;BME280;7577;45.226;5.798;2023-08-17T09:51:09;99081.61;;;30.30;41.24
14966;BME280;7577;45.226;5.798;2023-08-17T09:53:39;99077.59;;;30.31;41.12
14966;BME280;7577;45.226;5.798;2023-08-17T09:56:10;99071.58;;;30.32;41.22
14966;BME280;7577;45.226;5.798;2023-08-17T10:01:26;99056.51;;;30.31;41.24
14966;BME280;7577;45.226;5.798;2023-08-17T10:03:59;99061.31;;;30.30;41.26
14966;BME280;7577;45.226;5.798;2023-08-17T10:06:31;99052.72;;;30.33;41.16
14966;BME280;7577;45.226;5.798;2023-08-17T10:09:03;99049.30;;;30.33;41.13
14966;BME280;7577;45.226;5.798;2023-08-17T10:14:18;99040.67;;;30.36;41.11
14966;BME280;7577;45.226;5.798;2023-08-17T10:16:57;99029.81;;;30.34;41.05
14966;BME280;7577;45.226;5.798;2023-08-17T10:22:06;99022.02;;;30.37;40.94
14966;BME280;7577;45.226;5.798;2023-08-17T10:24:37;99017.39;;;30.35;40.98
14966;BME280;7577;45.226;5.798;2023-08-17T10:27:08;99005.14;;;30.37;40.88
14966;BME280;7577;45.226;5.798;2023-08-17T10:29:40;99007.75;;;30.36;40.88
14966;BME280;7577;45.226;5.798;2023-08-17T10:32:12;99009.79;;;30.39;40.98
14966;BME280;7577;45.226;5.798;2023-08-17T10:37:26;98994.14;;;30.42;40.83
14966;BME280;7577;45.226;5.798;2023-08-17T10:39:56;98990.31;;;30.40;40.78
14966;BME280;7577;45.226;5.798;2023-08-17T10:42:33;98986.87;;;30.41;40.83
14966;BME280;7577;45.226;5.798;2023-08-17T10:45:27;98981.48;;;30.42;40.80
14966;BME280;7577;45.226;5.798;2023-08-17T10:48:25;98981.69;;;30.43;40.73
14966;BME280;7577;45.226;5.798;2023-08-17T10:51:04;98967.83;;;30.44;40.74
14966;BME280;7577;45.226;5.798;2023-08-17T10:53:38;98959.98;;;30.43;40.67
14966;BME280;7577;45.226;5.798;2023-08-17T10:58:53;98948.55;;;30.46;40.58
14966;BME280;7577;45.226;5.798;2023-08-17T11:01:35;98945.73;;;30.46;40.55
14966;BME280;7577;45.226;5.798;2023-08-17T11:04:15;98938.31;;;30.47;40.48
14966;BME280;7577;45.226;5.798;2023-08-17T11:06:45;98941.94;;;30.48;40.43
14966;BME280;7577;45.226;5.798;2023-08-17T11:09:17;98941.55;;;30.49;40.42
14966;BME280;7577;45.226;5.798;2023-08-17T11:11:53;98931.91;;;30.50;40.36
14966;BME280;7577;45.226;5.798;2023-08-17T11:14:23;98927.88;;;30.51;40.33
14966;BME280;7577;45.226;5.798;2023-08-17T11:16:53;98926.67;;;30.52;40.21
14966;BME280;7577;45.226;5.798;2023-08-17T11:22:02;98918.27;;;30.56;40.17
14966;BME280;7577;45.226;5.798;2023-08-17T11:24:32;98918.27;;;30.56;40.10
14966;BME280;7577;45.226;5.798;2023-08-17T11:27:05;98919.48;;;30.58;40.05
14966;BME280;7577;45.226;5.798;2023-08-17T11:29:35;98910.23;;;30.58;39.96
14966;BME280;7577;45.226;5.798;2023-08-17T11:32:06;98901.59;;;30.60;39.88
14966;BME280;7577;45.226;5.798;2023-08-17T11:34:37;98903.23;;;30.61;39.84
14966;BME280;7577;45.226;5.798;2023-08-17T11:37:07;98902.80;;;30.63;39.75
14966;BME280;7577;45.226;5.798;2023-08-17T11:39:37;98893.19;;;30.64;39.71
14966;BME280;7577;45.226;5.798;2023-08-17T11:42:08;98898.19;;;30.64;39.65
14966;BME280;7577;45.226;5.798;2023-08-17T11:44:39;98890.77;;;30.66;39.61
14966;BME280;7577;45.226;5.798;2023-08-17T11:47:10;98887.95;;;30.66;39.56
14966;BME280;7577;45.226;5.798;2023-08-17T11:49:40;98890.17;;;30.66;39.52
14966;BME280;7577;45.226;5.798;2023-08-17T11:52:11;98878.93;;;30.66;39.48
14966;BME280;7577;45.226;5.798;2023-08-17T11:54:41;98885.14;;;30.66;39.45
14966;BME280;7577;45.226;5.798;2023-08-17T11:57:12;98884.39;;;30.69;39.42
14966;BME280;7577;45.226;5.798;2023-08-17T11:59:42;98880.17;;;30.69;39.37
14966;BME280;7577;45.226;5.798;2023-08-17T12:02:13;98875.55;;;30.70;39.29
14966;BME280;7577;45.226;5.798;2023-08-17T12:04:45;98873.72;;;30.72;39.16
14966;BME280;7577;45.226;5.798;2023-08-17T12:07:16;98876.95;;;30.74;39.12
14966;BME280;7577;45.226;5.798;2023-08-17T12:09:47;98865.90;;;30.75;39.06
14966;BME280;7577;45.226;5.798;2023-08-17T12:12:19;98860.70;;;30.77;39.03
14966;BME280;7577;45.226;5.798;2023-08-17T12:14:51;98860.89;;;30.78;38.90
14966;BME280;7577;45.226;5.798;2023-08-17T12:17:22;98847.02;;;30.79;38.76
14966;BME280;7577;45.226;5.798;2023-08-17T12:22:32;98845.84;;;30.83;38.65
14966;BME280;7577;45.226;5.798;2023-08-17T12:25:03;98844.01;;;30.81;38.56
14966;BME280;7577;45.226;5.798;2023-08-17T12:27:33;98834.36;;;30.82;38.54
14966;BME280;7577;45.226;5.798;2023-08-17T12:30:05;98833.96;;;30.84;38.46
14966;BME280;7577;45.226;5.798;2023-08-17T12:32:37;98834.16;;;30.85;38.43
14966;BME280;7577;45.226;5.798;2023-08-17T12:35:08;98829.73;;;30.87;38.40
14966;BME280;7577;45.226;5.798;2023-08-17T12:37:38;98824.33;;;30.88;38.34
14966;BME280;7577;45.226;5.798;2023-08-17T12:40:11;98820.50;;;30.90;38.29
14966;BME280;7577;45.226;5.798;2023-08-17T12:42:41;98822.91;;;30.92;38.29
14966;BME280;7577;45.226;5.798;2023-08-17T12:45:11;98822.33;;;30.92;38.24
14966;BME280;7577;45.226;5.798;2023-08-17T12:47:42;98825.73;;;30.92;38.23
14966;BME280;7577;45.226;5.798;2023-08-17T12:52:50;98816.09;;;30.96;37.78
14966;BME280;7577;45.226;5.798;2023-08-17T12:55:20;98817.91;;;30.95;37.82
14966;BME280;7577;45.226;5.798;2023-08-17T12:57:50;98812.07;;;30.97;37.84
14966;BME280;7577;45.226;5.798;2023-08-17T13:00:20;98807.03;;;30.97;37.80
14966;BME280;7577;45.226;5.798;2023-08-17T13:02:51;98807.85;;;30.97;37.82
14966;BME280;7577;45.226;5.798;2023-08-17T13:05:21;98803.83;;;30.98;37.81
14966;BME280;7577;45.226;5.798;2023-08-17T13:07:51;98800.19;;;30.98;37.84
14966;BME280;7577;45.226;5.798;2023-08-17T13:10:22;98799.01;;;30.99;37.84
14966;BME280;7577;45.226;5.798;2023-08-17T13:12:52;98791.16;;;30.98;37.85
14966;BME280;7577;45.226;5.798;2023-08-17T13:15:24;98785.53;;;30.98;37.86
14966;BME280;7577;45.226;5.798;2023-08-17T13:20:35;98776.30;;;31.01;37.71
14966;BME280;7577;45.226;5.798;2023-08-17T13:23:07;98784.31;;;30.99;37.76
14966;BME280;7577;45.226;5.798;2023-08-17T13:25:38;98780.91;;;31.00;37.79
14966;BME280;7577;45.226;5.798;2023-08-17T13:28:08;98773.87;;;31.00;37.77
14966;BME280;7577;45.226;5.798;2023-08-17T13:30:39;98779.11;;;31.01;37.68
14966;BME280;7577;45.226;5.798;2023-08-17T13:33:09;98777.08;;;31.02;37.67
14966;BME280;7577;45.226;5.798;2023-08-17T13:35:41;98773.08;;;31.03;37.58
14966;BME280;7577;45.226;5.798;2023-08-17T13:38:11;98769.05;;;31.04;37.55
14966;BME280;7577;45.226;5.798;2023-08-17T13:40:42;98766.43;;;31.05;37.51
14966;BME280;7577;45.226;5.798;2023-08-17T13:43:12;98764.00;;;31.07;37.51
14966;BME280;7577;45.226;5.798;2023-08-17T13:45:42;98756.97;;;31.07;37.44
14966;BME280;7577;45.226;5.798;2023-08-17T13:48:12;98755.56;;;31.07;37.42
14966;BME280;7577;45.226;5.798;2023-08-17T13:50:43;98748.14;;;31.05;37.24
14966;BME280;7577;45.226;5.798;2023-08-17T13:53:14;98740.08;;;31.07;37.28
14966;BME280;7577;45.226;5.798;2023-08-17T13:55:44;98739.30;;;31.06;37.24
14966;BME280;7577;45.226;5.798;2023-08-17T13:58:14;98747.94;;;31.07;37.25
14966;BME280;7577;45.226;5.798;2023-08-17T14:00:44;98737.69;;;31.09;37.26
14966;BME280;7577;45.226;5.798;2023-08-17T14:03:14;98743.50;;;31.10;37.17
14966;BME280;7577;45.226;5.798;2023-08-17T14:05:44;98743.11;;;31.11;37.14
14966;BME280;7577;45.226;5.798;2023-08-17T14:08:15;98739.48;;;31.14;37.08
14966;BME280;7577;45.226;5.798;2023-08-17T14:10:45;98739.05;;;31.16;37.02
14966;BME280;7577;45.226;5.798;2023-08-17T14:13:15;98732.44;;;31.18;36.96
14966;BME280;7577;45.226;5.798;2023-08-17T14:15:45;98732.24;;;31.17;36.94
14966;BME280;7577;45.226;5.798;2023-08-17T14:18:15;98727.00;;;31.19;36.88
14966;BME280;7577;45.226;5.798;2023-08-17T14:23:23;98720.98;;;31.27;36.80
14966;BME280;7577;45.226;5.798;2023-08-17T14:25:53;98717.55;;;31.28;36.74
14966;BME280;7577;45.226;5.798;2023-08-17T14:28:24;98719.38;;;31.30;36.32
14966;BME280;7577;45.226;5.798;2023-08-17T14:30:55;98715.31;;;31.34;36.23
14966;BME280;7577;45.226;5.798;2023-08-17T14:33:25;98709.47;;;31.37;36.37
14966;BME280;7577;45.226;5.798;2023-08-17T14:35:55;98717.30;;;31.41;36.28
14966;BME280;7577;45.226;5.798;2023-08-17T14:38:25;98711.65;;;31.44;36.23
14966;BME280;7577;45.226;5.798;2023-08-17T14:40:55;98707.42;;;31.44;36.22
14966;BME280;7577;45.226;5.798;2023-08-17T14:43:25;98706.81;;;31.48;36.20
14966;BME280;7577;45.226;5.798;2023-08-17T14:45:56;98711.63;;;31.51;35.79
14966;BME280;7577;45.226;5.798;2023-08-17T14:48:26;98705.00;;;31.53;35.92
14966;BME280;7577;45.226;5.798;2023-08-17T14:50:57;98702.16;;;31.57;35.90